createdAt,value
2023-04-26T00:34:38.897Z,97964.16
2023-04-26T00:37:05.857Z,97964.16
2023-04-26T00:39:32.379Z,97970.69
2023-04-26T00:41:58.869Z,97968.06
2023-04-26T01:21:20.897Z,97950.94
2023-04-26T01:23:47.489Z,97945.69
2023-04-26T01:40:53.036Z,97939.47
2023-04-26T01:43:19.537Z,97933.66
2023-04-26T01:45:48.934Z,97938.66
2023-04-26T01:48:16.921Z,97931.03
2023-04-26T02:07:50.720Z,97932.13
2023-04-26T02:10:17.565Z,97937.31
2023-04-26T02:12:44.102Z,97931.03
2023-04-26T02:15:11.105Z,97938.44
2023-04-26T02:17:38.578Z,97932.59
2023-04-26T02:20:05.475Z,97933.16
2023-04-26T02:22:31.979Z,97928.38
2023-04-26T02:27:24.923Z,97924.72
2023-04-26T02:32:17.882Z,97928.47
2023-04-26T02:37:11.091Z,97925.84
2023-04-26T02:46:57.823Z,97932.28
2023-04-26T02:49:24.304Z,97925.19
2023-04-26T02:51:50.744Z,97926.22
2023-04-26T02:54:17.281Z,97931.25
2023-04-26T02:59:10.257Z,97922.88
2023-04-26T03:08:56.529Z,97926.88
2023-04-26T03:23:35.101Z,97928.81
2023-04-26T03:26:01.589Z,97928.56
2023-04-26T03:28:28.064Z,97930.16
2023-04-26T03:30:54.619Z,97930.16
2023-04-26T03:33:21.104Z,97935.75
2023-04-26T03:35:47.568Z,97924.59
2023-04-26T03:38:14.100Z,97923.00
2023-04-26T03:40:40.588Z,97924.59
2023-04-26T03:45:33.464Z,97935.13
2023-04-26T03:48:00.049Z,97934.63
2023-04-26T03:55:19.780Z,97931.56
2023-04-26T03:57:46.417Z,97935.75
2023-04-26T05:33:00.707Z,97931.41
2023-04-26T05:35:27.274Z,97931.66
2023-04-26T05:37:53.768Z,97934.75
2023-04-26T05:45:13.217Z,97925.56
2023-04-26T05:47:39.678Z,97932.06
2023-04-26T05:50:07.019Z,97931.84
2023-04-26T05:52:33.600Z,97920.47
2023-04-26T05:55:00.225Z,97928.13
2023-04-26T05:57:26.846Z,97924.56
2023-04-26T05:59:53.416Z,97933.69
2023-04-26T06:02:19.974Z,97930.84
2023-04-26T06:04:46.960Z,97927.75
2023-04-26T06:07:13.583Z,97934.84
2023-04-26T06:12:06.568Z,97937.03
2023-04-26T06:14:33.316Z,97945.81
2023-04-26T06:19:26.463Z,97944.31
2023-04-26T06:26:45.694Z,97953.63
2023-04-26T06:29:12.184Z,97955.72
2023-04-26T06:38:57.811Z,97950.47
2023-04-26T06:41:24.450Z,97958.72
2023-04-26T06:43:51.169Z,97959.59
2023-04-26T06:46:17.966Z,97951.25
2023-04-26T06:48:44.769Z,97947.81
2023-04-26T06:51:11.401Z,97950.72
2023-04-26T07:00:57.601Z,97956.97
2023-04-26T07:03:24.321Z,97956.41
2023-04-26T07:05:51.034Z,97967.25
2023-04-26T07:08:17.536Z,97961.91
2023-04-26T07:15:36.959Z,97966.41
2023-04-26T07:25:22.964Z,97961.63
2023-04-26T07:27:49.445Z,97963.41
2023-04-26T07:30:15.917Z,97957.81
2023-04-26T07:32:42.530Z,97967.44
2023-04-26T07:35:10.564Z,97971.19
2023-04-26T07:37:37.084Z,97980.97
2023-04-26T07:40:03.997Z,97987.41
2023-04-26T07:42:30.494Z,97988.31
2023-04-26T07:44:57.046Z,97992.41
2023-04-26T07:47:23.663Z,97986.00
2023-04-26T07:49:53.573Z,97988.75
2023-04-26T07:52:20.073Z,97997.91
2023-04-26T07:54:47.708Z,97985.38
2023-04-26T07:57:14.484Z,97997.78
2023-04-26T07:59:40.987Z,98002.22
2023-04-26T08:02:07.683Z,98003.38
2023-04-26T08:04:34.564Z,98003.19
2023-04-26T08:07:01.431Z,98010.47
2023-04-26T08:09:29.274Z,98012.16
2023-04-26T08:11:55.876Z,97999.25
2023-04-26T08:14:22.392Z,98014.69
2023-04-26T08:19:15.546Z,98010.88
2023-04-26T08:21:42.157Z,98011.75
2023-04-26T08:24:08.808Z,98018.72
2023-04-26T08:26:35.305Z,98005.81
2023-04-26T08:29:01.801Z,98017.72
2023-04-26T08:31:28.403Z,98015.03
2023-04-26T08:33:55.034Z,98012.59
2023-04-26T08:36:21.654Z,98015.19
2023-04-26T08:38:48.168Z,98009.19
2023-04-26T08:41:20.917Z,98004.53
2023-04-26T08:43:48.703Z,98009.47
2023-04-26T08:46:18.977Z,98016.53
2023-04-26T08:48:54.688Z,98015.75
2023-04-26T08:51:22.435Z,98015.16
2023-04-26T08:53:51.876Z,98022.75
2023-04-26T08:56:18.646Z,98020.56
2023-04-26T08:58:45.249Z,98015.00
2023-04-26T09:01:15.025Z,98021.22
2023-04-26T09:03:41.724Z,98019.91
2023-04-26T09:06:09.029Z,98023.38
2023-04-26T09:08:40.377Z,98028.44
2023-04-26T09:11:06.912Z,98026.78
2023-04-26T09:13:33.529Z,98029.78
2023-04-26T09:16:03.401Z,98027.31
2023-04-26T09:18:31.157Z,98037.91
2023-04-26T09:21:09.113Z,98028.72
2023-04-26T09:23:35.968Z,98041.25
2023-04-26T09:26:18.425Z,98036.59
2023-04-26T09:28:44.881Z,98045.19
2023-04-26T09:31:11.387Z,98045.59
2023-04-26T09:33:57.909Z,98049.97
2023-04-26T09:36:24.436Z,98056.28
2023-04-26T09:38:51.173Z,98053.59
2023-04-26T09:41:18.098Z,98057.22
2023-04-26T09:43:44.621Z,98057.34
2023-04-26T09:46:11.114Z,98060.34
2023-04-26T09:48:38.122Z,98064.38
2023-04-26T09:51:04.565Z,98069.09
2023-04-26T09:53:39.008Z,98052.19
2023-04-26T09:56:08.456Z,98050.50
2023-04-26T09:58:37.242Z,98056.38
2023-04-26T10:01:04.411Z,98055.59
2023-04-26T10:03:31.611Z,98063.47
2023-04-26T10:05:58.702Z,98056.00
2023-04-26T10:08:26.048Z,98060.38
2023-04-26T10:10:53.110Z,98063.72
2023-04-26T10:13:19.745Z,98063.97
2023-04-26T10:15:47.681Z,98062.50
2023-04-26T10:18:14.206Z,98060.44
2023-04-26T10:20:43.357Z,98064.72
2023-04-26T10:23:20.300Z,98079.66
2023-04-26T10:25:48.049Z,98075.97
2023-04-26T10:28:14.595Z,98076.75
2023-04-26T10:31:00.399Z,98070.38
2023-04-26T10:33:27.255Z,98078.56
2023-04-26T10:36:10.286Z,98085.56
2023-04-26T10:39:01.100Z,98089.88
2023-04-26T10:41:35.294Z,98081.13
2023-04-26T10:44:37.660Z,98078.47
2023-04-26T10:47:06.230Z,98084.09
2023-04-26T10:49:44.589Z,98093.00
2023-04-26T10:52:20.958Z,98091.41
2023-04-26T10:54:54.898Z,98092.97
2023-04-26T10:57:23.226Z,98098.72
2023-04-26T11:00:31.735Z,98096.16
2023-04-26T11:03:04.379Z,98108.50
2023-04-26T11:05:52.792Z,98114.81
2023-04-26T11:08:23.980Z,98125.44
2023-04-26T11:10:59.247Z,98118.00
2023-04-26T11:13:25.808Z,98124.94
2023-04-26T11:16:00.169Z,98128.69
2023-04-26T11:18:26.734Z,98125.06
2023-04-26T11:20:53.319Z,98123.53
2023-04-26T11:23:19.935Z,98128.75
2023-04-26T11:25:46.852Z,98125.94
2023-04-26T11:28:13.345Z,98115.84
2023-04-26T11:30:40.446Z,98118.72
2023-04-26T11:33:07.093Z,98125.66
2023-04-26T11:35:36.592Z,98127.25
2023-04-26T11:38:04.921Z,98132.31
2023-04-26T11:40:32.551Z,98137.59
2023-04-26T11:43:09.514Z,98133.69
2023-04-26T11:45:37.568Z,98130.72
2023-04-26T11:48:06.998Z,98146.25
2023-04-26T11:50:36.513Z,98130.50
2023-04-26T11:53:06.445Z,98125.16
2023-04-26T11:55:34.310Z,98122.69
2023-04-26T11:58:01.698Z,98134.75
2023-04-26T12:00:28.452Z,98127.56
2023-04-26T12:02:55.146Z,98131.34
2023-04-26T12:05:22.349Z,98133.63
2023-04-26T12:07:55.851Z,98134.72
2023-04-26T12:10:29.355Z,98132.34
2023-04-26T12:12:58.518Z,98140.41
2023-04-26T12:15:34.650Z,98144.13
2023-04-26T12:18:11.749Z,98162.94
2023-04-26T12:20:42.140Z,98154.13
2023-04-26T12:23:14.832Z,98177.06
2023-04-26T12:25:51.233Z,98191.75
